Time;durP1;ratioP1;P1;durP2;ratioP2;P2;SDS_P1;SDS_P2;PMS_P1;PMS_P2;Temp;Humidity;BMP_temperature;BMP_pressure;BME280_temperature;BME280_humidity;BME280_pressure;Samples;Min_cycle;Max_cycle;Signal;HPM_P1;HPM_P2
2022/01/16 00:04:06;;;;;;;53.28;16.33;;;;;;;;;;5060697;28;20056;-78
2022/01/16 00:06:33;;;;;;;53.35;16.25;;;;;;;;;;5043102;28;20040;-76
2022/01/16 00:08:59;;;;;;;54.25;18.23;;;;;;;;;;5042967;28;20134;-76
2022/01/16 00:11:25;;;;;;;56.55;18.33;;;;;;;;;;5044152;28;20123;-76
2022/01/16 00:13:51;;;;;;;56.80;18.00;;;;;;;;;;5059275;28;20512;-77
2022/01/16 00:16:17;;;;;;;67.22;19.90;;;;;;;;;;5042682;28;20120;-76
2022/01/16 00:18:50;;;;;;;59.22;18.35;;;;;;;;;;5044281;28;20047;-77
2022/01/16 00:21:20;;;;;;;58.13;17.40;;;;;;;;;;5043481;28;20041;-76
2022/01/16 00:23:46;;;;;;;72.33;19.33;;;;;;;;;;5058723;28;20041;-75
2022/01/16 00:26:12;;;;;;;63.03;19.30;;;;;;;;;;5043464;28;20286;-77
2022/01/16 00:28:38;;;;;;;64.22;19.02;;;;;;;;;;5060252;28;20582;-77
2022/01/16 00:31:05;;;;;;;66.97;18.63;;;;;;;;;;5041837;28;20066;-78
2022/01/16 00:33:31;;;;;;;49.78;15.45;;;;;;;;;;5059892;28;20115;-77
2022/01/16 00:35:57;;;;;;;59.38;16.92;;;;;;;;;;5059899;28;20045;-76
2022/01/16 00:38:23;;;;;;;55.67;17.55;;;;;;;;;;5057913;28;20044;-78
2022/01/16 00:40:49;;;;;;;60.58;19.13;;;;;;;;;;5043652;28;20434;-77
2022/01/16 00:43:14;;;;;;;53.45;16.30;;;;;;;;;;5059670;28;20074;-78
2022/01/16 00:45:41;;;;;;;55.88;17.73;;;;;;;;;;5058712;28;20047;-76
2022/01/16 00:48:07;;;;;;;50.80;17.02;;;;;;;;;;5043940;28;20503;-77
2022/01/16 00:50:34;;;;;;;51.03;16.30;;;;;;;;;;5059011;28;20405;-75
2022/01/16 00:53:01;;;;;;;49.85;15.00;;;;;;;;;;5041778;28;20036;-76
2022/01/16 00:55:27;;;;;;;50.33;15.32;;;;;;;;;;5043692;28;20036;-75
2022/01/16 00:57:53;;;;;;;49.25;15.27;;;;;;;;;;5042473;28;20032;-75
2022/01/16 01:00:19;;;;;;;45.65;15.90;;;;;;;;;;5058109;28;20128;-75
2022/01/16 01:02:45;;;;;;;51.03;16.33;;;;;;;;;;5059667;28;20056;-77
2022/01/16 01:05:11;;;;;;;49.97;16.50;;;;;;;;;;5058597;28;20033;-77
2022/01/16 01:07:39;;;;;;;53.20;15.70;;;;;;;;;;5058966;28;20052;-77
2022/01/16 01:10:05;;;;;;;55.20;17.20;;;;;;;;;;5043695;28;20028;-76
2022/01/16 01:12:51;;;;;;;52.78;16.52;;;;;;;;;;5042286;28;20036;-77
2022/01/16 01:15:17;;;;;;;61.05;17.58;;;;;;;;;;5042632;28;20809;-77
2022/01/16 01:17:45;;;;;;;56.60;17.35;;;;;;;;;;5041227;28;20513;-77
2022/01/16 01:20:15;;;;;;;57.45;17.63;;;;;;;;;;5033533;28;20409;-77
2022/01/16 01:22:41;;;;;;;57.53;19.05;;;;;;;;;;5033378;28;20041;-76
2022/01/16 01:25:08;;;;;;;52.50;16.75;;;;;;;;;;5033772;28;20041;-78
2022/01/16 01:27:34;;;;;;;54.58;16.95;;;;;;;;;;5033454;28;20033;-77
2022/01/16 01:30:06;;;;;;;52.20;17.10;;;;;;;;;;5033318;28;20516;-77
2022/01/16 01:32:37;;;;;;;49.17;18.58;;;;;;;;;;5049994;28;20049;-76
2022/01/16 01:35:04;;;;;;;46.03;16.15;;;;;;;;;;5033260;28;20041;-77
2022/01/16 01:37:30;;;;;;;47.90;17.15;;;;;;;;;;5050251;28;20052;-76
2022/01/16 01:39:56;;;;;;;54.92;17.50;;;;;;;;;;5033618;28;20041;-77
2022/01/16 01:42:30;;;;;;;50.15;17.98;;;;;;;;;;5049784;28;20520;-75
2022/01/16 01:53:13;;;;;;;45.25;16.02;;;;;;;;;;5054130;28;20552;-77
2022/01/16 01:55:40;;;;;;;48.67;17.40;;;;;;;;;;5053775;28;20051;-77
2022/01/16 01:58:06;;;;;;;50.22;17.08;;;;;;;;;;5037099;28;20033;-76
2022/01/16 02:00:32;;;;;;;47.75;16.38;;;;;;;;;;5053392;28;20053;-77
2022/01/16 02:05:24;;;;;;;53.08;16.27;;;;;;;;;;5053907;28;20053;-79
2022/01/16 02:07:50;;;;;;;51.00;16.65;;;;;;;;;;5053726;28;20045;-78
2022/01/16 02:10:16;;;;;;;58.42;18.33;;;;;;;;;;5054250;28;20040;-77
2022/01/16 02:12:44;;;;;;;55.00;17.85;;;;;;;;;;5053464;28;20064;-76
2022/01/16 02:15:36;;;;;;;57.50;19.35;;;;;;;;;;5053416;28;20044;-77
2022/01/16 02:28:00;;;;;;;64.43;20.15;;;;;;;;;;5053344;28;20136;-77
2022/01/16 02:31:45;;;;;;;68.97;21.05;;;;;;;;;;5053417;28;20127;-76
2022/01/16 02:36:59;;;;;;;59.53;19.30;;;;;;;;;;5052990;28;20049;-77
2022/01/16 02:39:26;;;;;;;74.30;21.70;;;;;;;;;;5036228;28;20103;-77
2022/01/16 02:41:54;;;;;;;65.20;18.13;;;;;;;;;;5052751;28;20055;-78
2022/01/16 02:44:32;;;;;;;58.53;17.63;;;;;;;;;;5053125;28;20045;-77
2022/01/16 02:46:58;;;;;;;64.13;17.90;;;;;;;;;;5036294;28;20454;-77
2022/01/16 02:49:29;;;;;;;59.55;19.65;;;;;;;;;;5052995;28;20128;-78
2022/01/16 02:51:59;;;;;;;69.73;20.20;;;;;;;;;;5036089;28;20094;-78
2022/01/16 02:54:27;;;;;;;66.00;20.25;;;;;;;;;;5036068;28;20279;-78
2022/01/16 02:56:53;;;;;;;71.40;22.42;;;;;;;;;;5036263;28;20515;-78
2022/01/16 02:59:21;;;;;;;74.60;21.05;;;;;;;;;;5052631;28;20083;-77
2022/01/16 03:01:47;;;;;;;63.58;19.65;;;;;;;;;;5034977;28;20045;-79
2022/01/16 03:04:13;;;;;;;76.88;22.48;;;;;;;;;;5036167;28;20048;-77
2022/01/16 03:06:39;;;;;;;68.82;19.98;;;;;;;;;;5035888;28;20047;-77
2022/01/16 03:09:09;;;;;;;62.90;19.10;;;;;;;;;;5036020;28;20032;-78
2022/01/16 03:11:38;;;;;;;69.25;19.75;;;;;;;;;;5035975;28;20090;-78
2022/01/16 03:14:04;;;;;;;73.20;22.95;;;;;;;;;;5052592;28;20142;-78
2022/01/16 03:16:30;;;;;;;67.22;19.17;;;;;;;;;;5035597;28;20053;-79
2022/01/16 03:21:57;;;;;;;66.05;20.88;;;;;;;;;;5052279;28;20053;-78
2022/01/16 03:24:35;;;;;;;77.85;23.58;;;;;;;;;;5035903;28;20044;-78
2022/01/16 03:27:02;;;;;;;78.80;21.73;;;;;;;;;;5052045;28;20045;-77
2022/01/16 03:29:28;;;;;;;66.68;16.65;;;;;;;;;;5035714;28;20064;-78
2022/01/16 03:31:54;;;;;;;77.15;20.83;;;;;;;;;;5051877;28;20515;-77
2022/01/16 03:34:20;;;;;;;69.40;20.33;;;;;;;;;;5051945;28;20135;-78
2022/01/16 03:36:47;;;;;;;90.40;23.35;;;;;;;;;;5035414;28;20150;-78
2022/01/16 03:39:13;;;;;;;85.40;22.73;;;;;;;;;;5035256;28;20041;-78
2022/01/16 03:41:39;;;;;;;83.90;21.45;;;;;;;;;;5051908;28;20037;-77
2022/01/16 03:44:05;;;;;;;86.45;22.83;;;;;;;;;;5051869;28;20052;-78
2022/01/16 03:46:35;;;;;;;66.53;20.27;;;;;;;;;;5035143;28;20044;-78
2022/01/16 03:49:06;;;;;;;89.10;22.88;;;;;;;;;;5051711;28;20473;-77
2022/01/16 03:51:32;;;;;;;85.10;25.30;;;;;;;;;;5034816;28;20451;-78
2022/01/16 03:53:58;;;;;;;75.28;20.77;;;;;;;;;;5051892;28;20094;-78
2022/01/16 03:56:24;;;;;;;64.03;19.70;;;;;;;;;;5035175;28;20044;-78
2022/01/16 03:58:50;;;;;;;72.95;20.30;;;;;;;;;;5034804;28;20041;-77
2022/01/16 04:01:16;;;;;;;83.43;24.63;;;;;;;;;;5051386;28;20053;-78
2022/01/16 04:03:42;;;;;;;74.30;23.33;;;;;;;;;;5035086;28;20048;-79
2022/01/16 04:06:08;;;;;;;71.32;19.20;;;;;;;;;;5051455;28;20029;-77
2022/01/16 04:08:34;;;;;;;75.22;21.05;;;;;;;;;;5051312;28;20037;-78
2022/01/16 04:11:00;;;;;;;78.95;20.77;;;;;;;;;;5034684;28;20621;-78
2022/01/16 04:13:26;;;;;;;81.57;23.88;;;;;;;;;;5050942;28;20044;-77
2022/01/16 04:15:53;;;;;;;76.03;22.08;;;;;;;;;;5034739;28;20382;-78
2022/01/16 04:18:19;;;;;;;87.85;23.17;;;;;;;;;;5051220;28;20037;-78
2022/01/16 04:20:45;;;;;;;69.28;20.83;;;;;;;;;;5051036;28;20073;-78
2022/01/16 04:23:11;;;;;;;90.93;24.17;;;;;;;;;;5050894;28;20417;-77
2022/01/16 04:25:37;;;;;;;94.45;24.90;;;;;;;;;;5050965;28;20483;-78
2022/01/16 04:28:04;;;;;;;82.07;20.77;;;;;;;;;;5034241;28;20041;-78
2022/01/16 04:30:30;;;;;;;84.40;23.13;;;;;;;;;;5034539;28;20128;-77
2022/01/16 04:32:56;;;;;;;74.63;22.52;;;;;;;;;;5051329;28;20049;-77
2022/01/16 04:35:22;;;;;;;86.13;21.60;;;;;;;;;;5034234;28;20041;-77
2022/01/16 04:37:48;;;;;;;79.57;24.08;;;;;;;;;;5034614;28;20135;-78
2022/01/16 04:40:14;;;;;;;82.90;23.08;;;;;;;;;;5034094;28;20048;-77
2022/01/16 04:45:26;;;;;;;87.75;21.70;;;;;;;;;;5050543;28;20049;-77
2022/01/16 04:47:53;;;;;;;76.13;20.65;;;;;;;;;;5033956;28;20048;-77
2022/01/16 04:50:21;;;;;;;97.25;24.15;;;;;;;;;;5034321;28;20453;-77
2022/01/16 04:52:47;;;;;;;90.57;23.63;;;;;;;;;;5033934;28;20045;-78
2022/01/16 04:55:13;;;;;;;83.22;23.45;;;;;;;;;;5050407;28;20045;-77
2022/01/16 04:57:40;;;;;;;78.45;21.05;;;;;;;;;;5050390;28;20045;-76
2022/01/16 05:00:07;;;;;;;87.47;22.88;;;;;;;;;;5033823;28;20409;-78
2022/01/16 05:02:33;;;;;;;64.65;19.77;;;;;;;;;;5033655;28;20049;-78
2022/01/16 05:04:59;;;;;;;98.28;24.55;;;;;;;;;;5050640;28;20370;-77
2022/01/16 05:07:25;;;;;;;74.93;20.85;;;;;;;;;;5033667;28;20037;-78
2022/01/16 05:09:51;;;;;;;93.05;23.63;;;;;;;;;;5033714;28;20033;-76
2022/01/16 05:12:26;;;;;;;85.18;21.48;;;;;;;;;;5034122;28;20040;-78
2022/01/16 05:17:37;;;;;;;86.47;24.27;;;;;;;;;;5050520;28;20091;-77
2022/01/16 05:20:03;;;;;;;81.57;22.30;;;;;;;;;;5050330;28;20037;-76
2022/01/16 05:22:29;;;;;;;83.78;22.45;;;;;;;;;;5033522;28;20037;-77
2022/01/16 05:24:56;;;;;;;74.25;21.50;;;;;;;;;;5049507;28;20037;-76
2022/01/16 05:27:21;;;;;;;82.95;21.42;;;;;;;;;;5033467;28;20545;-79
2022/01/16 05:29:47;;;;;;;70.00;19.27;;;;;;;;;;5033593;28;20032;-78
2022/01/16 05:32:16;;;;;;;86.20;22.23;;;;;;;;;;5033640;28;20097;-78
2022/01/16 05:34:42;;;;;;;78.57;21.63;;;;;;;;;;5033476;28;20041;-79
2022/01/16 05:37:08;;;;;;;93.90;24.95;;;;;;;;;;5050369;28;20037;-77
2022/01/16 05:39:34;;;;;;;80.47;21.40;;;;;;;;;;5033485;28;20110;-76
2022/01/16 05:42:00;;;;;;;76.78;21.08;;;;;;;;;;5033381;28;20124;-76
2022/01/16 05:44:27;;;;;;;82.85;23.25;;;;;;;;;;5049878;28;20052;-76
2022/01/16 05:46:53;;;;;;;89.18;22.73;;;;;;;;;;5049915;28;20037;-77
2022/01/16 05:49:19;;;;;;;93.05;26.10;;;;;;;;;;5033103;28;20102;-76
2022/01/16 05:51:45;;;;;;;89.38;23.00;;;;;;;;;;5050014;28;20045;-77
2022/01/16 05:54:11;;;;;;;88.05;25.15;;;;;;;;;;5050074;28;20090;-78
2022/01/16 05:56:37;;;;;;;91.35;26.13;;;;;;;;;;5033377;28;20049;-78
2022/01/16 05:59:03;;;;;;;91.55;24.48;;;;;;;;;;5049766;28;20063;-78
2022/01/16 06:01:28;;;;;;;87.70;24.55;;;;;;;;;;5032997;28;20045;-77
2022/01/16 06:03:54;;;;;;;93.15;24.45;;;;;;;;;;5033177;28;20277;-77
2022/01/16 06:06:20;;;;;;;86.10;22.60;;;;;;;;;;5049860;28;20072;-76
2022/01/16 06:08:48;;;;;;;85.32;23.15;;;;;;;;;;5033168;28;20059;-77
2022/01/16 06:11:14;;;;;;;81.72;23.27;;;;;;;;;;5049673;28;20040;-77
2022/01/16 06:13:40;;;;;;;81.88;22.45;;;;;;;;;;5033124;28;20400;-77
2022/01/16 06:16:06;;;;;;;87.43;26.17;;;;;;;;;;5032828;28;20116;-77
2022/01/16 06:18:32;;;;;;;87.60;23.35;;;;;;;;;;5033002;28;20036;-77
2022/01/16 06:20:58;;;;;;;85.32;22.27;;;;;;;;;;5049822;28;20043;-76
2022/01/16 06:23:24;;;;;;;80.80;21.95;;;;;;;;;;5032960;28;20124;-77
2022/01/16 06:25:54;;;;;;;94.25;24.58;;;;;;;;;;5049766;28;20397;-76
2022/01/16 06:28:21;;;;;;;84.77;26.43;;;;;;;;;;5033311;28;20041;-76
2022/01/16 06:30:47;;;;;;;85.53;22.73;;;;;;;;;;5033138;28;20040;-76
2022/01/16 06:33:12;;;;;;;81.93;23.33;;;;;;;;;;5033095;28;20041;-77
2022/01/16 06:35:38;;;;;;;93.72;26.83;;;;;;;;;;5033196;28;20041;-77
2022/01/16 06:38:05;;;;;;;84.95;24.20;;;;;;;;;;5035280;28;20040;-76
2022/01/16 06:40:31;;;;;;;77.90;22.55;;;;;;;;;;5052919;28;20071;-75
2022/01/16 06:42:57;;;;;;;81.28;23.50;;;;;;;;;;5036182;28;20045;-77
2022/01/16 06:45:23;;;;;;;82.55;24.05;;;;;;;;;;5036533;28;20610;-74
2022/01/16 06:47:51;;;;;;;91.63;24.27;;;;;;;;;;5052976;28;20043;-73
2022/01/16 06:50:17;;;;;;;71.63;21.52;;;;;;;;;;5053083;28;20045;-76
2022/01/16 06:52:43;;;;;;;80.53;22.73;;;;;;;;;;5036131;28;20215;-76
2022/01/16 06:55:09;;;;;;;84.20;22.00;;;;;;;;;;5036210;28;20541;-75
2022/01/16 06:57:35;;;;;;;87.93;26.23;;;;;;;;;;5052801;28;20044;-75
2022/01/16 07:00:01;;;;;;;81.25;24.35;;;;;;;;;;5035821;28;20087;-75
2022/01/16 07:02:27;;;;;;;81.13;23.83;;;;;;;;;;5035735;28;20053;-75
2022/01/16 07:04:53;;;;;;;88.25;24.58;;;;;;;;;;5043828;28;20033;-76
2022/01/16 07:07:19;;;;;;;77.75;22.05;;;;;;;;;;5044056;28;20120;-76
2022/01/16 07:09:45;;;;;;;81.03;23.02;;;;;;;;;;5061882;28;20046;-75
2022/01/16 07:12:11;;;;;;;85.97;24.02;;;;;;;;;;5060034;28;20041;-76
2022/01/16 07:14:37;;;;;;;90.18;23.90;;;;;;;;;;5044176;28;20064;-77
2022/01/16 07:17:04;;;;;;;86.78;24.95;;;;;;;;;;5045090;28;20083;-76
2022/01/16 07:19:30;;;;;;;87.90;25.48;;;;;;;;;;5060233;28;20087;-75
2022/01/16 07:21:56;;;;;;;83.97;23.45;;;;;;;;;;5061056;28;20041;-76
2022/01/16 07:24:22;;;;;;;82.32;23.35;;;;;;;;;;5045182;28;20037;-76
2022/01/16 07:26:48;;;;;;;75.80;23.00;;;;;;;;;;5059708;28;20489;-75
2022/01/16 07:29:14;;;;;;;87.03;24.88;;;;;;;;;;5045923;28;20036;-75
2022/01/16 07:31:40;;;;;;;78.05;23.17;;;;;;;;;;5060428;28;20102;-75
2022/01/16 07:34:06;;;;;;;85.13;23.85;;;;;;;;;;5061902;28;20392;-76
2022/01/16 07:36:32;;;;;;;76.78;24.00;;;;;;;;;;5060106;28;20106;-75
2022/01/16 07:38:58;;;;;;;91.00;24.15;;;;;;;;;;5060735;28;20047;-74
2022/01/16 07:41:24;;;;;;;87.45;26.52;;;;;;;;;;5061606;28;20164;-76
2022/01/16 07:43:50;;;;;;;82.47;23.90;;;;;;;;;;5042009;28;20040;-75
2022/01/16 07:46:20;;;;;;;91.05;25.48;;;;;;;;;;5043270;28;20090;-77
2022/01/16 07:48:46;;;;;;;86.47;25.27;;;;;;;;;;5058529;28;20060;-75
2022/01/16 07:51:12;;;;;;;87.40;24.33;;;;;;;;;;5044767;28;20033;-76
2022/01/16 07:53:38;;;;;;;92.07;26.30;;;;;;;;;;5060550;28;20037;-76
2022/01/16 07:56:04;;;;;;;82.40;22.92;;;;;;;;;;5059626;28;20139;-76
2022/01/16 07:58:30;;;;;;;91.97;23.23;;;;;;;;;;5045632;28;20031;-76
2022/01/16 08:00:56;;;;;;;85.43;25.33;;;;;;;;;;5059587;28;20056;-76
2022/01/16 08:03:23;;;;;;;80.18;24.60;;;;;;;;;;5059368;28;20097;-76
2022/01/16 08:05:49;;;;;;;82.13;24.90;;;;;;;;;;5059702;28;20378;-77
2022/01/16 08:08:15;;;;;;;83.40;25.05;;;;;;;;;;5060842;28;20400;-76
2022/01/16 08:10:41;;;;;;;79.50;25.50;;;;;;;;;;5060091;28;20037;-77
2022/01/16 08:13:07;;;;;;;86.55;26.00;;;;;;;;;;5058777;28;20047;-76
2022/01/16 08:15:33;;;;;;;80.28;24.00;;;;;;;;;;5044003;28;20551;-76
2022/01/16 08:17:59;;;;;;;77.13;24.77;;;;;;;;;;5055672;28;20040;-75
2022/01/16 08:20:26;;;;;;;85.38;25.67;;;;;;;;;;5058459;28;20055;-75
2022/01/16 08:22:52;;;;;;;87.18;25.30;;;;;;;;;;5057161;28;20063;-75
2022/01/16 08:25:18;;;;;;;87.88;25.77;;;;;;;;;;5057914;28;20400;-76
2022/01/16 08:27:44;;;;;;;92.05;27.08;;;;;;;;;;5041951;28;20492;-75
2022/01/16 08:30:10;;;;;;;89.70;26.70;;;;;;;;;;5041069;28;20064;-76
2022/01/16 08:32:38;;;;;;;87.50;28.35;;;;;;;;;;5041074;28;20045;-76
2022/01/16 08:35:04;;;;;;;84.22;26.92;;;;;;;;;;5057595;28;20155;-77
2022/01/16 08:37:30;;;;;;;83.88;25.40;;;;;;;;;;5040724;28;20327;-76
2022/01/16 08:39:56;;;;;;;80.32;26.83;;;;;;;;;;5057516;28;20476;-76
2022/01/16 08:42:22;;;;;;;79.50;25.40;;;;;;;;;;5057811;28;20043;-75
2022/01/16 08:44:49;;;;;;;79.97;25.73;;;;;;;;;;5040813;28;20444;-75
2022/01/16 08:47:15;;;;;;;82.95;26.27;;;;;;;;;;5057195;28;20044;-75
2022/01/16 08:49:42;;;;;;;88.90;26.85;;;;;;;;;;5041300;28;20503;-76
2022/01/16 08:52:08;;;;;;;85.65;25.65;;;;;;;;;;5040590;28;20033;-76
2022/01/16 08:54:34;;;;;;;86.25;25.80;;;;;;;;;;5046013;28;20040;-77
2022/01/16 08:57:00;;;;;;;89.35;25.90;;;;;;;;;;5047322;28;20586;-75
2022/01/16 08:59:26;;;;;;;78.75;24.23;;;;;;;;;;5049720;28;20063;-75
2022/01/16 09:01:52;;;;;;;79.75;25.85;;;;;;;;;;5035279;28;20059;-75
2022/01/16 09:04:18;;;;;;;77.97;23.42;;;;;;;;;;5056681;28;20037;-76
2022/01/16 09:06:44;;;;;;;71.80;25.48;;;;;;;;;;5060926;28;20029;-74
2022/01/16 09:09:10;;;;;;;75.03;25.70;;;;;;;;;;5059469;28;20409;-76
2022/01/16 09:11:37;;;;;;;79.53;26.25;;;;;;;;;;5059348;28;20056;-77
2022/01/16 09:14:03;;;;;;;68.88;23.95;;;;;;;;;;5044223;28;20400;-74
2022/01/16 09:16:30;;;;;;;73.95;24.77;;;;;;;;;;5042589;28;20040;-76
2022/01/16 09:18:57;;;;;;;67.00;23.70;;;;;;;;;;5042789;28;20067;-76
2022/01/16 09:21:23;;;;;;;71.18;23.20;;;;;;;;;;5044008;28;20391;-76
2022/01/16 09:23:49;;;;;;;68.07;22.27;;;;;;;;;;5042562;28;20099;-77
2022/01/16 09:26:15;;;;;;;58.92;22.60;;;;;;;;;;5059555;28;20040;-75
2022/01/16 09:28:42;;;;;;;68.65;21.13;;;;;;;;;;5044310;28;20064;-76
2022/01/16 09:31:08;;;;;;;67.45;23.33;;;;;;;;;;5059168;28;20072;-75
2022/01/16 09:33:35;;;;;;;61.45;22.75;;;;;;;;;;5042923;28;20040;-77
2022/01/16 09:36:01;;;;;;;66.78;24.55;;;;;;;;;;5060421;28;20049;-77
2022/01/16 09:38:27;;;;;;;64.35;22.00;;;;;;;;;;5040922;28;20049;-76
2022/01/16 09:40:55;;;;;;;63.65;22.60;;;;;;;;;;5040868;28;20041;-76
2022/01/16 09:43:21;;;;;;;71.20;23.73;;;;;;;;;;5054676;28;20044;-76
2022/01/16 09:45:48;;;;;;;60.65;21.30;;;;;;;;;;5039884;28;20059;-77
2022/01/16 09:48:15;;;;;;;54.08;20.75;;;;;;;;;;5039503;28;20045;-76
2022/01/16 09:50:41;;;;;;;53.58;20.63;;;;;;;;;;5055183;28;20063;-80
2022/01/16 09:53:07;;;;;;;58.17;21.23;;;;;;;;;;5057397;28;20040;-76
2022/01/16 09:55:33;;;;;;;58.13;21.30;;;;;;;;;;5039336;28;20052;-77
2022/01/16 09:58:00;;;;;;;54.05;20.98;;;;;;;;;;5055044;28;20079;-77
2022/01/16 10:00:27;;;;;;;55.92;20.05;;;;;;;;;;5057016;28;20057;-77
2022/01/16 10:02:53;;;;;;;53.35;19.70;;;;;;;;;;5039105;28;20037;-77
2022/01/16 10:05:29;;;;;;;56.58;21.30;;;;;;;;;;5039149;28;20408;-77
2022/01/16 10:07:56;;;;;;;50.50;19.35;;;;;;;;;;5055335;28;20040;-77
2022/01/16 10:10:27;;;;;;;47.15;19.45;;;;;;;;;;5043482;28;20044;-77
2022/01/16 10:12:55;;;;;;;41.70;18.75;;;;;;;;;;5070280;28;20417;-77
2022/01/16 10:15:28;;;;;;;51.45;19.77;;;;;;;;;;5053391;28;20127;-77
2022/01/16 10:17:55;;;;;;;49.47;18.73;;;;;;;;;;5070396;28;20518;-77
2022/01/16 10:20:21;;;;;;;44.78;18.17;;;;;;;;;;5069973;28;20037;-76
2022/01/16 10:22:55;;;;;;;48.08;19.55;;;;;;;;;;5053203;28;20563;-77
2022/01/16 10:25:41;;;;;;;39.88;16.98;;;;;;;;;;5053528;28;20496;-77
2022/01/16 10:28:33;;;;;;;45.03;17.60;;;;;;;;;;5053615;28;20113;-77
2022/01/16 10:30:59;;;;;;;45.72;17.52;;;;;;;;;;5050576;28;20048;-77
2022/01/16 10:33:33;;;;;;;35.67;17.05;;;;;;;;;;5069442;28;20071;-78
2022/01/16 10:35:59;;;;;;;46.85;18.63;;;;;;;;;;5053630;28;20040;-77
2022/01/16 10:38:26;;;;;;;37.80;16.48;;;;;;;;;;5053051;28;20457;-77
2022/01/16 10:40:54;;;;;;;41.67;17.50;;;;;;;;;;5069672;28;20044;-77
2022/01/16 10:43:21;;;;;;;32.35;15.90;;;;;;;;;;5052434;28;20044;-76
2022/01/16 10:45:51;;;;;;;44.25;19.67;;;;;;;;;;5052793;28;20119;-77
2022/01/16 10:48:24;;;;;;;54.20;18.98;;;;;;;;;;5069411;28;20126;-77
2022/01/16 10:50:51;;;;;;;44.78;18.23;;;;;;;;;;5069525;28;20123;-77
2022/01/16 10:53:19;;;;;;;47.75;18.75;;;;;;;;;;5069261;28;20048;-77
2022/01/16 10:55:55;;;;;;;39.17;16.77;;;;;;;;;;5069010;28;20131;-76
2022/01/16 10:58:21;;;;;;;40.83;17.42;;;;;;;;;;5065333;28;20041;-76
2022/01/16 11:01:05;;;;;;;39.60;15.90;;;;;;;;;;5057627;28;20048;-76
2022/01/16 11:03:42;;;;;;;38.50;17.00;;;;;;;;;;5043172;28;20052;-76
2022/01/16 11:06:08;;;;;;;39.67;17.33;;;;;;;;;;5041008;28;20596;-77
2022/01/16 11:08:34;;;;;;;36.10;17.02;;;;;;;;;;5044130;28;20032;-76
2022/01/16 11:11:00;;;;;;;40.60;16.63;;;;;;;;;;5058704;28;20029;-76
2022/01/16 11:13:32;;;;;;;37.35;15.73;;;;;;;;;;5058927;28;20044;-76
2022/01/16 11:16:03;;;;;;;42.90;16.52;;;;;;;;;;5044281;28;20385;-78
2022/01/16 11:18:29;;;;;;;33.97;15.70;;;;;;;;;;5059425;28;20052;-77
2022/01/16 11:21:27;;;;;;;35.25;16.00;;;;;;;;;;5040902;28;20111;-77
2022/01/16 11:26:16;;;;;;;31.20;13.25;;;;;;;;;;5057392;28;20367;-77
2022/01/16 11:28:42;;;;;;;35.85;15.00;;;;;;;;;;5041422;28;20043;-77
2022/01/16 11:31:09;;;;;;;35.42;14.02;;;;;;;;;;5059313;28;20060;-75
2022/01/16 11:33:36;;;;;;;34.45;14.35;;;;;;;;;;5042346;28;20151;-77
2022/01/16 11:36:08;;;;;;;37.75;14.45;;;;;;;;;;5058305;28;20043;-75
2022/01/16 11:38:35;;;;;;;25.80;13.98;;;;;;;;;;5057336;28;20108;-77
2022/01/16 11:41:11;;;;;;;32.40;13.90;;;;;;;;;;5058319;28;20048;-77
2022/01/16 11:43:38;;;;;;;29.08;13.57;;;;;;;;;;5042523;28;20036;-77
2022/01/16 11:46:06;;;;;;;33.20;12.32;;;;;;;;;;5058241;28;20040;-76
2022/01/16 11:48:37;;;;;;;30.02;13.02;;;;;;;;;;5042430;28;20043;-77
2022/01/16 11:51:07;;;;;;;28.15;14.02;;;;;;;;;;5057164;28;20040;-77
2022/01/16 11:53:52;;;;;;;26.13;12.57;;;;;;;;;;5040517;28;20048;-78
2022/01/16 11:56:37;;;;;;;28.27;12.52;;;;;;;;;;5042686;28;20279;-79
2022/01/16 11:59:23;;;;;;;25.05;11.75;;;;;;;;;;5056667;28;20041;-77
2022/01/16 12:01:52;;;;;;;37.20;13.05;;;;;;;;;;5042022;28;20064;-76
2022/01/16 12:04:30;;;;;;;24.08;10.13;;;;;;;;;;5058336;28;20032;-77
2022/01/16 12:06:57;;;;;;;24.38;11.40;;;;;;;;;;5042130;28;20078;-77
2022/01/16 12:09:50;;;;;;;21.45;9.90;;;;;;;;;;5042161;28;20444;-78
2022/01/16 12:12:16;;;;;;;18.77;8.63;;;;;;;;;;5057852;28;20396;-78
2022/01/16 12:14:48;;;;;;;19.13;10.30;;;;;;;;;;5058359;28;20041;-77
2022/01/16 12:17:30;;;;;;;22.05;9.60;;;;;;;;;;5058768;28;20046;-77
2022/01/16 12:19:56;;;;;;;16.27;8.23;;;;;;;;;;5057754;28;20049;-77
2022/01/16 12:22:42;;;;;;;14.65;7.90;;;;;;;;;;5039538;28;20036;-77
2022/01/16 12:25:09;;;;;;;18.52;8.02;;;;;;;;;;5045810;28;20492;-76
2022/01/16 12:27:38;;;;;;;17.38;8.32;;;;;;;;;;5068323;28;20033;-77
2022/01/16 12:30:10;;;;;;;17.85;8.38;;;;;;;;;;5051276;28;20048;-77
2022/01/16 12:32:56;;;;;;;19.60;7.95;;;;;;;;;;5067976;28;20066;-78
2022/01/16 12:35:40;;;;;;;21.52;8.57;;;;;;;;;;5044351;28;20083;-76
2022/01/16 12:38:07;;;;;;;20.90;8.05;;;;;;;;;;5048201;28;20045;-78
2022/01/16 12:40:34;;;;;;;13.07;6.30;;;;;;;;;;5031000;28;20091;-77
2022/01/16 12:43:01;;;;;;;19.40;8.13;;;;;;;;;;5031728;28;20375;-77
2022/01/16 12:45:29;;;;;;;26.48;7.97;;;;;;;;;;5031039;28;20557;-76
2022/01/16 12:47:55;;;;;;;17.35;7.63;;;;;;;;;;5048108;28;20040;-78
2022/01/16 12:50:21;;;;;;;18.63;7.50;;;;;;;;;;5030860;28;20505;-77
2022/01/16 12:52:48;;;;;;;17.48;7.07;;;;;;;;;;5030791;28;20055;-77
2022/01/16 12:55:14;;;;;;;14.68;7.55;;;;;;;;;;5047433;28;20048;-76
2022/01/16 12:57:40;;;;;;;19.55;6.90;;;;;;;;;;5030156;28;20186;-78
2022/01/16 13:00:10;;;;;;;20.92;6.68;;;;;;;;;;5030767;28;20151;-77
2022/01/16 13:02:38;;;;;;;17.42;6.70;;;;;;;;;;5041019;28;20059;-75
2022/01/16 13:05:04;;;;;;;15.77;6.03;;;;;;;;;;5055975;28;20041;-77
2022/01/16 13:07:31;;;;;;;11.90;6.20;;;;;;;;;;5050531;28;20044;-78
2022/01/16 13:09:57;;;;;;;16.73;6.30;;;;;;;;;;5066739;28;20551;-77
2022/01/16 13:12:23;;;;;;;17.70;7.70;;;;;;;;;;5048968;28;20080;-78
2022/01/16 13:14:50;;;;;;;19.73;6.63;;;;;;;;;;5030728;28;20102;-77
2022/01/16 13:17:16;;;;;;;15.55;6.32;;;;;;;;;;5030163;28;20118;-77
2022/01/16 13:22:13;;;;;;;18.13;6.60;;;;;;;;;;5046772;28;20096;-77
2022/01/16 13:24:40;;;;;;;14.93;6.35;;;;;;;;;;5053743;28;20048;-77
2022/01/16 13:27:08;;;;;;;14.60;5.97;;;;;;;;;;5055814;28;20513;-77
2022/01/16 13:29:38;;;;;;;16.15;6.75;;;;;;;;;;5040823;28;20408;-77
2022/01/16 13:32:05;;;;;;;12.10;5.60;;;;;;;;;;5057413;28;20048;-77
2022/01/16 13:34:34;;;;;;;14.32;5.90;;;;;;;;;;5038215;28;20095;-78
2022/01/16 13:37:01;;;;;;;14.73;5.95;;;;;;;;;;5056946;28;20045;-77
2022/01/16 13:39:33;;;;;;;16.75;6.25;;;;;;;;;;5040538;28;20507;-77
2022/01/16 13:42:11;;;;;;;15.10;6.18;;;;;;;;;;5040001;28;20041;-77
2022/01/16 13:44:37;;;;;;;16.35;6.72;;;;;;;;;;5055813;28;20037;-78
2022/01/16 13:47:03;;;;;;;16.63;8.65;;;;;;;;;;5059454;28;20040;-78
2022/01/16 13:49:29;;;;;;;15.98;7.80;;;;;;;;;;5053734;28;20043;-78
2022/01/16 13:51:56;;;;;;;15.82;7.40;;;;;;;;;;5034170;28;20519;-78
2022/01/16 13:54:28;;;;;;;14.98;7.15;;;;;;;;;;5034061;28;20496;-77
2022/01/16 13:56:56;;;;;;;11.13;5.88;;;;;;;;;;5034365;28;20080;-76
2022/01/16 13:59:22;;;;;;;14.13;6.68;;;;;;;;;;5034100;28;20052;-77
2022/01/16 14:01:52;;;;;;;12.35;6.75;;;;;;;;;;5033890;28;20053;-78
2022/01/16 14:04:19;;;;;;;13.20;6.32;;;;;;;;;;5034040;28;20409;-77
2022/01/16 14:06:59;;;;;;;12.57;6.68;;;;;;;;;;5050323;28;20464;-77
2022/01/16 14:09:25;;;;;;;17.95;7.05;;;;;;;;;;5034442;28;20453;-77
2022/01/16 14:11:52;;;;;;;15.10;7.30;;;;;;;;;;5050335;28;20576;-77
2022/01/16 14:14:19;;;;;;;14.13;7.47;;;;;;;;;;5050947;28;20067;-77
2022/01/16 14:17:02;;;;;;;17.88;7.60;;;;;;;;;;5033254;28;20052;-77
2022/01/16 14:19:39;;;;;;;20.90;9.18;;;;;;;;;;5050430;28;20135;-77
2022/01/16 14:22:10;;;;;;;20.90;9.90;;;;;;;;;;5038568;28;20040;-77
2022/01/16 14:24:58;;;;;;;18.65;9.80;;;;;;;;;;5060285;28;20037;-78
2022/01/16 14:27:24;;;;;;;18.02;9.55;;;;;;;;;;5042839;28;20032;-78
2022/01/16 14:29:51;;;;;;;20.85;8.85;;;;;;;;;;5059333;28;20044;-77
2022/01/16 14:32:18;;;;;;;14.63;7.80;;;;;;;;;;5057608;28;20055;-77
2022/01/16 14:34:45;;;;;;;18.67;7.75;;;;;;;;;;5059765;28;20037;-76
2022/01/16 14:37:12;;;;;;;15.60;7.60;;;;;;;;;;5058511;28;20049;-77
2022/01/16 14:39:38;;;;;;;12.18;6.88;;;;;;;;;;5057407;28;20051;-78
2022/01/16 14:42:05;;;;;;;13.43;6.70;;;;;;;;;;5058944;28;20040;-77
2022/01/16 14:44:32;;;;;;;19.42;7.63;;;;;;;;;;5059086;28;20118;-78
2022/01/16 14:46:59;;;;;;;17.77;7.80;;;;;;;;;;5057629;28;20040;-77
2022/01/16 14:49:26;;;;;;;17.38;7.80;;;;;;;;;;5059942;28;20036;-78
2022/01/16 14:51:52;;;;;;;18.88;7.30;;;;;;;;;;5059104;28;20557;-74
2022/01/16 14:54:18;;;;;;;12.30;6.72;;;;;;;;;;5057747;28;20120;-77
2022/01/16 14:56:44;;;;;;;15.50;7.00;;;;;;;;;;5042611;28;20563;-75
2022/01/16 14:59:12;;;;;;;12.80;7.00;;;;;;;;;;5042344;28;20072;-78
2022/01/16 15:01:38;;;;;;;15.75;5.93;;;;;;;;;;5059646;28;20569;-76
2022/01/16 15:04:04;;;;;;;12.98;6.75;;;;;;;;;;5057668;28;20562;-76